createdAt,value
2022-10-11T00:01:24.634Z,16.20
2022-10-11T00:04:11.378Z,16.10
2022-10-11T00:06:58.047Z,16.00
2022-10-11T00:09:44.469Z,16.00
2022-10-11T00:12:30.788Z,16.00
2022-10-11T00:15:20.479Z,16.00
2022-10-11T00:18:08.484Z,16.00
2022-10-11T00:21:03.083Z,16.00
2022-10-11T00:23:50.050Z,16.10
2022-10-11T00:26:36.377Z,16.00
2022-10-11T00:29:23.065Z,16.10
2022-10-11T00:32:09.509Z,16.10
2022-10-11T00:34:59.658Z,15.90
2022-10-11T00:37:46.484Z,15.70
2022-10-11T00:40:33.117Z,15.70
2022-10-11T00:43:21.963Z,15.70
2022-10-11T00:46:28.135Z,15.80
2022-10-11T00:49:20.371Z,15.60
2022-10-11T00:52:15.511Z,15.60
2022-10-11T00:55:05.830Z,15.50
2022-10-11T00:57:54.416Z,15.60
2022-10-11T01:00:41.093Z,15.60
2022-10-11T01:03:29.545Z,15.50
2022-10-11T01:06:16.358Z,15.50
2022-10-11T01:09:04.794Z,15.60
2022-10-11T01:11:53.255Z,15.50
2022-10-11T01:15:13.156Z,15.60
2022-10-11T01:18:05.034Z,15.70
2022-10-11T01:20:59.729Z,15.80
2022-10-11T01:24:20.613Z,15.60
2022-10-11T01:27:32.829Z,15.70
2022-10-11T01:30:29.034Z,15.80
2022-10-11T01:33:26.544Z,15.90
2022-10-11T01:36:18.557Z,15.90
2022-10-11T01:39:10.329Z,15.80
2022-10-11T01:42:00.599Z,15.80
2022-10-11T01:44:50.011Z,15.80
2022-10-11T01:47:39.011Z,15.70
2022-10-11T01:50:41.653Z,15.70
2022-10-11T01:54:00.689Z,15.80
2022-10-11T01:57:15.314Z,15.70
2022-10-11T02:00:11.827Z,15.60
2022-10-11T02:03:18.660Z,15.80
2022-10-11T02:06:10.081Z,15.80
2022-10-11T02:09:07.941Z,15.80
2022-10-11T02:11:57.518Z,15.80
2022-10-11T02:14:47.556Z,15.90
2022-10-11T02:17:39.024Z,15.90
2022-10-11T02:20:29.519Z,15.90
2022-10-11T02:23:19.933Z,15.90
2022-10-11T02:26:08.139Z,15.90
2022-10-11T02:29:00.317Z,15.80
2022-10-11T02:31:47.620Z,15.80
2022-10-11T02:34:38.077Z,15.80
2022-10-11T02:37:32.122Z,15.70
2022-10-11T02:40:25.057Z,15.70
2022-10-11T02:43:17.546Z,15.70
2022-10-11T02:46:07.343Z,15.70
2022-10-11T02:48:55.409Z,15.70
2022-10-11T02:51:42.639Z,15.70
2022-10-11T02:54:30.593Z,15.70
2022-10-11T02:57:17.168Z,15.80
2022-10-11T03:00:04.353Z,15.80
2022-10-11T03:02:50.997Z,15.70
2022-10-11T03:05:40.637Z,15.70
2022-10-11T03:08:27.104Z,15.70
2022-10-11T03:11:15.030Z,15.60
2022-10-11T03:14:01.631Z,15.50
2022-10-11T03:16:48.720Z,15.60
2022-10-11T03:19:35.357Z,15.60
2022-10-11T03:22:22.399Z,15.50
2022-10-11T03:25:09.969Z,15.40
2022-10-11T03:27:57.714Z,15.40
2022-10-11T03:30:44.084Z,15.40
2022-10-11T03:33:30.412Z,15.30
2022-10-11T03:36:17.063Z,15.30
2022-10-11T03:39:04.439Z,15.20
2022-10-11T03:41:51.011Z,15.20
2022-10-11T03:44:39.514Z,15.20
2022-10-11T03:47:26.213Z,15.20
2022-10-11T03:50:12.516Z,15.10
2022-10-11T03:52:59.141Z,15.20
2022-10-11T03:55:45.881Z,15.10
2022-10-11T03:58:32.359Z,15.00
2022-10-11T04:01:20.251Z,14.90
2022-10-11T04:04:07.034Z,14.90
2022-10-11T04:06:53.596Z,14.80
2022-10-11T04:09:40.161Z,14.80
2022-10-11T04:12:26.833Z,14.80
2022-10-11T04:15:13.552Z,14.70
2022-10-11T04:18:01.576Z,14.70
2022-10-11T04:20:48.483Z,14.60
2022-10-11T04:23:35.512Z,14.70
2022-10-11T04:26:22.045Z,14.70
2022-10-11T04:29:08.474Z,14.60
2022-10-11T04:31:54.860Z,14.60
2022-10-11T04:34:42.950Z,14.60
2022-10-11T04:37:29.516Z,14.60
2022-10-11T04:40:15.966Z,14.60
2022-10-11T04:43:02.411Z,14.70
2022-10-11T04:45:52.248Z,14.60
2022-10-11T04:48:41.306Z,14.60
2022-10-11T04:51:29.063Z,14.60
2022-10-11T04:54:15.726Z,14.60
2022-10-11T04:57:02.065Z,14.60
2022-10-11T04:59:50.351Z,14.60
2022-10-11T05:02:37.014Z,14.60
2022-10-11T05:05:23.539Z,14.70
2022-10-11T05:08:12.314Z,14.50
2022-10-11T05:10:59.757Z,14.40
2022-10-11T05:13:47.308Z,14.40
2022-10-11T05:16:34.193Z,14.40
2022-10-11T05:19:20.959Z,14.40
2022-10-11T05:22:07.258Z,14.40
2022-10-11T05:24:55.129Z,14.40
2022-10-11T05:27:41.989Z,14.40
2022-10-11T05:30:28.828Z,14.40
2022-10-11T05:33:15.196Z,14.40
2022-10-11T05:36:01.851Z,14.50
2022-10-11T05:38:48.625Z,14.60
2022-10-11T05:41:36.338Z,14.60
2022-10-11T05:44:22.918Z,14.60
2022-10-11T05:47:09.254Z,14.70
2022-10-11T05:49:55.632Z,14.70
2022-10-11T05:52:42.431Z,14.80
2022-10-11T05:55:29.010Z,14.80
2022-10-11T05:58:18.491Z,14.80
2022-10-11T06:01:05.308Z,14.80
2022-10-11T06:03:52.771Z,14.80
2022-10-11T06:06:39.174Z,14.80
2022-10-11T06:09:25.523Z,14.80
2022-10-11T06:12:11.846Z,14.80
2022-10-11T06:14:59.491Z,14.80
2022-10-11T06:17:45.817Z,14.80
2022-10-11T06:20:32.220Z,14.80
2022-10-11T06:23:18.556Z,14.80
2022-10-11T06:26:08.233Z,14.70
2022-10-11T06:28:55.509Z,14.70
2022-10-11T06:31:44.138Z,14.70
2022-10-11T06:34:30.764Z,14.60
2022-10-11T06:37:17.380Z,14.70
2022-10-11T06:40:04.698Z,14.80
2022-10-11T06:42:51.064Z,14.80
2022-10-11T06:45:37.503Z,14.80
2022-10-11T06:48:25.359Z,14.80
2022-10-11T06:51:11.744Z,14.90
2022-10-11T06:54:01.679Z,15.00
2022-10-11T06:56:47.940Z,15.00
2022-10-11T06:59:34.409Z,15.00
2022-10-11T07:02:20.736Z,15.00
2022-10-11T07:05:10.066Z,15.10
2022-10-11T07:07:56.741Z,15.10
2022-10-11T07:10:43.326Z,15.10
2022-10-11T07:13:29.760Z,15.10
2022-10-11T07:16:16.460Z,15.10
2022-10-11T07:19:04.518Z,15.10
2022-10-11T07:21:52.219Z,15.10
2022-10-11T07:24:38.589Z,15.20
2022-10-11T07:27:24.893Z,15.10
2022-10-11T07:30:12.313Z,15.10
2022-10-11T07:32:58.749Z,15.00
2022-10-11T07:35:48.343Z,15.00
2022-10-11T07:38:39.345Z,15.00
2022-10-11T07:41:25.768Z,15.10
2022-10-11T07:44:12.140Z,15.20
2022-10-11T07:46:58.540Z,15.10
2022-10-11T07:49:44.786Z,15.10
2022-10-11T07:52:31.245Z,15.20
2022-10-11T07:55:19.059Z,15.10
2022-10-11T07:58:05.292Z,15.20
2022-10-11T08:00:54.529Z,15.20
2022-10-11T08:03:41.428Z,15.30
2022-10-11T08:06:32.240Z,15.20
2022-10-11T08:09:18.725Z,15.20
2022-10-11T08:12:06.758Z,15.20
2022-10-11T08:14:55.738Z,15.20
2022-10-11T08:17:42.519Z,15.10
2022-10-11T08:20:31.029Z,15.00
2022-10-11T08:23:18.033Z,15.00
2022-10-11T08:26:05.547Z,15.00
2022-10-11T08:28:53.530Z,15.00
2022-10-11T08:31:40.245Z,15.10
2022-10-11T08:34:26.657Z,15.00
2022-10-11T08:37:12.881Z,15.10
2022-10-11T08:39:59.493Z,15.20
2022-10-11T08:42:49.893Z,15.20
2022-10-11T08:45:43.908Z,15.30
2022-10-11T08:48:35.771Z,15.20
2022-10-11T08:51:28.320Z,15.30
2022-10-11T08:54:22.027Z,15.20
2022-10-11T08:57:12.391Z,15.20
2022-10-11T09:00:01.695Z,15.20
2022-10-11T09:03:08.055Z,15.20
2022-10-11T09:06:07.735Z,15.10
2022-10-11T09:09:08.488Z,15.10
2022-10-11T09:12:15.041Z,15.20
2022-10-11T09:15:25.445Z,15.30
2022-10-11T09:18:37.063Z,15.20
2022-10-11T09:21:35.348Z,15.20
2022-10-11T09:24:34.639Z,15.20
2022-10-11T09:27:49.927Z,15.30
2022-10-11T09:30:32.506Z,15.30
2022-10-11T09:33:20.769Z,15.40
2022-10-11T09:36:19.568Z,15.30
2022-10-11T09:39:19.842Z,15.40
2022-10-11T09:42:08.691Z,15.40
2022-10-11T09:44:57.277Z,15.50
2022-10-11T09:47:43.943Z,15.80
2022-10-11T09:50:32.596Z,16.00
2022-10-11T09:53:21.888Z,16.20
2022-10-11T09:56:09.614Z,16.40
2022-10-11T09:59:26.241Z,16.80
2022-10-11T10:02:24.175Z,17.20
2022-10-11T10:05:20.978Z,17.50
2022-10-11T10:08:24.762Z,17.70
2022-10-11T10:11:12.213Z,17.30
2022-10-11T10:13:58.729Z,17.30
2022-10-11T10:16:45.228Z,17.00
2022-10-11T10:19:44.517Z,16.70
2022-10-11T10:22:35.242Z,16.70
2022-10-11T10:25:31.849Z,16.80
2022-10-11T10:28:22.058Z,17.20
2022-10-11T10:31:23.313Z,17.50
2022-10-11T10:34:15.948Z,17.70
2022-10-11T10:37:09.261Z,17.70
2022-10-11T10:39:59.331Z,18.10
2022-10-11T10:42:47.088Z,18.70
2022-10-11T10:45:43.776Z,18.90
2022-10-11T10:49:12.087Z,18.90
2022-10-11T10:51:57.303Z,18.80
2022-10-11T10:54:51.405Z,18.20
2022-10-11T10:57:46.656Z,18.00
2022-10-11T11:00:43.182Z,17.80
2022-10-11T11:03:44.118Z,17.70
2022-10-11T11:06:39.900Z,17.10
2022-10-11T11:09:35.645Z,17.00
2022-10-11T11:12:37.927Z,17.00
2022-10-11T11:15:34.273Z,16.70
2022-10-11T11:18:30.495Z,16.70
2022-10-11T11:21:28.954Z,16.60
2022-10-11T11:24:23.102Z,16.80
2022-10-11T11:27:23.266Z,17.00
2022-10-11T11:30:12.828Z,17.10
2022-10-11T11:33:11.240Z,16.90
2022-10-11T11:36:04.042Z,16.80
2022-10-11T11:38:56.503Z,17.00
2022-10-11T11:41:47.937Z,17.10
2022-10-11T11:44:38.791Z,17.00
2022-10-11T11:47:31.149Z,17.00
2022-10-11T11:50:22.618Z,17.10
2022-10-11T11:53:16.319Z,17.10
2022-10-11T11:56:09.847Z,17.30
2022-10-11T11:59:03.949Z,17.30
2022-10-11T12:02:01.849Z,17.40
2022-10-11T12:04:49.716Z,17.30
2022-10-11T12:07:50.074Z,17.20
2022-10-11T12:10:54.274Z,17.30
2022-10-11T12:13:42.388Z,17.30
2022-10-11T12:16:29.109Z,17.20
2022-10-11T12:19:15.617Z,17.20
2022-10-11T12:22:18.436Z,17.10
2022-10-11T12:25:40.639Z,17.10
2022-10-11T12:28:49.294Z,17.20
2022-10-11T12:31:41.305Z,17.30
2022-10-11T12:34:37.034Z,17.30
2022-10-11T12:37:50.825Z,17.50
2022-10-11T12:40:42.887Z,17.50
2022-10-11T12:44:02.682Z,17.50
2022-10-11T12:47:14.062Z,17.60
2022-10-11T12:50:15.592Z,17.60
2022-10-11T12:53:09.993Z,17.60
2022-10-11T12:56:03.055Z,17.30
2022-10-11T12:58:50.136Z,17.10
2022-10-11T13:01:38.597Z,17.10
2022-10-11T13:04:29.123Z,17.20
2022-10-11T13:07:23.346Z,17.30
2022-10-11T13:10:15.943Z,17.40
2022-10-11T13:13:07.346Z,17.50
2022-10-11T13:15:55.268Z,17.40
2022-10-11T13:18:44.366Z,17.70
2022-10-11T13:21:35.961Z,17.80
2022-10-11T13:24:23.967Z,17.80
2022-10-11T13:27:19.227Z,17.80
2022-10-11T13:30:12.576Z,17.90
2022-10-11T13:33:00.803Z,18.10
2022-10-11T13:35:48.254Z,18.20
2022-10-11T13:38:36.752Z,18.40
2022-10-11T13:41:24.139Z,18.30
2022-10-11T13:44:10.987Z,18.20
2022-10-11T13:46:58.937Z,17.90
2022-10-11T13:49:47.665Z,17.80
2022-10-11T13:52:35.707Z,17.50
2022-10-11T13:55:31.572Z,17.30
2022-10-11T13:58:25.253Z,17.20
2022-10-11T14:01:18.583Z,17.00
2022-10-11T14:04:08.654Z,17.00
2022-10-11T14:06:58.840Z,17.20
2022-10-11T14:09:48.744Z,17.30
2022-10-11T14:12:40.369Z,17.40
2022-10-11T14:15:30.792Z,17.40
2022-10-11T14:18:37.673Z,17.30
2022-10-11T14:21:32.730Z,17.40
2022-10-11T14:24:20.479Z,17.20
2022-10-11T14:27:08.219Z,17.30
2022-10-11T14:30:24.069Z,17.40
2022-10-11T14:33:02.960Z,17.40
2022-10-11T14:35:53.108Z,17.20
2022-10-11T14:38:40.758Z,17.10
2022-10-11T14:41:27.132Z,17.10
2022-10-11T14:44:14.217Z,17.10
2022-10-11T14:47:01.310Z,16.90
2022-10-11T14:49:48.040Z,17.00
2022-10-11T14:52:34.383Z,17.00
2022-10-11T14:55:24.214Z,16.90
2022-10-11T14:58:12.650Z,16.90
2022-10-11T15:00:58.952Z,16.90
2022-10-11T15:03:45.731Z,16.90
2022-10-11T15:06:35.430Z,17.00
2022-10-11T15:09:22.653Z,17.10
2022-10-11T15:12:10.514Z,17.20
2022-10-11T15:14:57.163Z,17.10
2022-10-11T15:17:43.453Z,16.90
2022-10-11T15:20:33.273Z,16.60
2022-10-11T15:23:19.856Z,16.60
2022-10-11T15:26:06.826Z,16.70
2022-10-11T15:28:56.530Z,16.80
2022-10-11T15:31:43.345Z,16.80
2022-10-11T15:34:29.805Z,16.80
2022-10-11T15:37:16.160Z,16.90
2022-10-11T15:40:02.528Z,16.80
2022-10-11T15:42:50.112Z,16.90
2022-10-11T15:45:38.286Z,16.90
2022-10-11T15:48:26.782Z,16.80
2022-10-11T15:51:13.129Z,16.70
2022-10-11T15:53:59.948Z,16.70
2022-10-11T15:56:46.368Z,16.70
2022-10-11T15:59:32.754Z,16.70
2022-10-11T16:02:20.476Z,16.80
2022-10-11T16:05:07.629Z,16.80
2022-10-11T16:07:54.834Z,16.80
2022-10-11T16:10:41.486Z,16.70
2022-10-11T16:13:28.341Z,16.70
2022-10-11T16:16:14.945Z,16.60
2022-10-11T16:19:02.748Z,16.50
2022-10-11T16:21:49.162Z,16.50
2022-10-11T16:24:35.418Z,16.50
2022-10-11T16:27:22.130Z,16.50
2022-10-11T16:30:11.757Z,16.30
2022-10-11T16:32:58.632Z,16.10
2022-10-11T16:35:46.369Z,15.90
2022-10-11T16:38:32.661Z,15.90
2022-10-11T16:41:19.174Z,15.90
2022-10-11T16:44:06.801Z,15.90
2022-10-11T16:46:53.661Z,15.80
2022-10-11T16:49:40.265Z,15.80
2022-10-11T16:52:28.157Z,15.80
2022-10-11T16:55:14.560Z,15.90
2022-10-11T16:58:00.812Z,15.70
2022-10-11T17:00:47.211Z,15.60
2022-10-11T17:03:34.081Z,15.50
2022-10-11T17:06:21.037Z,15.40
2022-10-11T17:09:09.049Z,15.40
2022-10-11T17:11:55.793Z,15.20
2022-10-11T17:14:42.961Z,15.10
2022-10-11T17:17:30.593Z,15.10
2022-10-11T17:20:16.956Z,15.00
2022-10-11T17:23:03.743Z,15.00
2022-10-11T17:25:51.463Z,15.00
2022-10-11T17:28:38.372Z,15.10
2022-10-11T17:31:25.915Z,15.10
2022-10-11T17:34:14.758Z,15.10
2022-10-11T17:37:01.088Z,15.00
2022-10-11T17:39:47.587Z,15.10
2022-10-11T17:42:35.768Z,15.00
2022-10-11T17:45:22.230Z,14.90
2022-10-11T17:48:08.760Z,14.80
2022-10-11T17:50:55.772Z,14.80
2022-10-11T17:53:42.719Z,14.80
2022-10-11T17:56:35.037Z,14.60
2022-10-11T17:59:27.528Z,14.30
2022-10-11T18:02:14.553Z,14.10
2022-10-11T18:05:01.087Z,14.10
2022-10-11T18:07:47.507Z,13.90
2022-10-11T18:10:33.976Z,14.00
2022-10-11T18:13:20.870Z,13.90
2022-10-11T18:16:09.318Z,14.00
2022-10-11T18:18:57.295Z,13.90
2022-10-11T18:21:44.093Z,13.90
2022-10-11T18:24:30.742Z,13.90
2022-10-11T18:27:17.009Z,13.80
2022-10-11T18:30:03.558Z,13.90
2022-10-11T18:32:51.276Z,13.70
2022-10-11T18:35:37.795Z,13.60
2022-10-11T18:38:24.088Z,13.50
2022-10-11T18:41:12.022Z,13.50
2022-10-11T18:44:01.288Z,13.40
2022-10-11T18:46:48.316Z,13.50
2022-10-11T18:49:36.465Z,13.50
2022-10-11T18:52:23.121Z,13.50
2022-10-11T18:55:09.819Z,13.50
2022-10-11T18:57:56.468Z,13.60
2022-10-11T19:00:43.003Z,13.50
2022-10-11T19:03:34.875Z,13.50
2022-10-11T19:06:25.568Z,13.50
2022-10-11T19:09:14.132Z,13.40
2022-10-11T19:12:00.950Z,13.50
2022-10-11T19:14:48.848Z,13.60
2022-10-11T19:17:35.677Z,13.70
2022-10-11T19:20:21.945Z,13.80
2022-10-11T19:23:09.756Z,13.60
2022-10-11T19:25:57.879Z,13.50
2022-10-11T19:28:45.282Z,13.50
2022-10-11T19:31:32.774Z,13.40
2022-10-11T19:34:19.794Z,13.40
2022-10-11T19:37:06.305Z,13.30
2022-10-11T19:39:53.960Z,13.30
2022-10-11T19:42:40.586Z,13.10
2022-10-11T19:45:27.092Z,13.10
2022-10-11T19:48:13.548Z,13.10
2022-10-11T19:51:05.328Z,13.10
2022-10-11T19:53:56.674Z,13.30
2022-10-11T19:56:45.598Z,13.30
2022-10-11T19:59:32.433Z,13.30
2022-10-11T20:02:18.777Z,13.40
2022-10-11T20:05:05.578Z,13.30
2022-10-11T20:07:52.092Z,13.40
2022-10-11T20:10:38.407Z,13.50
2022-10-11T20:13:29.980Z,13.60
2022-10-11T20:16:21.254Z,13.80
2022-10-11T20:19:07.960Z,13.90
2022-10-11T20:21:54.416Z,13.90
2022-10-11T20:24:40.914Z,14.00
2022-10-11T20:27:27.221Z,13.90
2022-10-11T20:30:15.413Z,13.80
2022-10-11T20:33:02.184Z,13.70
2022-10-11T20:35:58.262Z,13.70
2022-10-11T20:38:46.732Z,13.60
2022-10-11T20:41:36.909Z,13.70
2022-10-11T20:44:23.489Z,13.80
2022-10-11T20:47:11.300Z,13.80
2022-10-11T20:49:57.561Z,13.70
2022-10-11T20:52:44.009Z,13.80
2022-10-11T20:55:30.446Z,13.80
2022-10-11T20:58:17.001Z,13.70
2022-10-11T21:01:09.605Z,13.80
2022-10-11T21:03:58.395Z,13.70
2022-10-11T21:06:44.996Z,13.70
2022-10-11T21:09:31.432Z,13.80
2022-10-11T21:12:17.858Z,13.90
2022-10-11T21:15:04.523Z,13.80
2022-10-11T21:17:51.923Z,13.80
2022-10-11T21:20:40.480Z,13.80
2022-10-11T21:23:27.073Z,13.80
2022-10-11T21:26:17.868Z,13.80
2022-10-11T21:29:04.545Z,13.50
2022-10-11T21:31:51.165Z,13.50
2022-10-11T21:34:37.597Z,13.70
2022-10-11T21:37:25.377Z,13.70
2022-10-11T21:40:11.984Z,13.70
2022-10-11T21:42:58.188Z,13.80
2022-10-11T21:45:44.606Z,13.70
2022-10-11T21:48:30.940Z,13.70
2022-10-11T21:51:19.946Z,13.80
2022-10-11T21:54:08.393Z,13.80
2022-10-11T21:56:54.660Z,13.80
2022-10-11T21:59:41.176Z,13.80
2022-10-11T22:02:27.561Z,13.90
2022-10-11T22:05:13.712Z,13.80
2022-10-11T22:08:00.093Z,13.90
2022-10-11T22:10:54.932Z,13.90
2022-10-11T22:13:42.801Z,13.90
2022-10-11T22:16:29.339Z,13.80
2022-10-11T22:19:16.029Z,14.00
2022-10-11T22:22:02.367Z,14.00
2022-10-11T22:24:48.822Z,13.90
2022-10-11T22:27:36.613Z,13.80
2022-10-11T22:30:24.024Z,13.70
2022-10-11T22:33:10.525Z,13.60
2022-10-11T22:35:57.436Z,13.60
2022-10-11T22:38:44.884Z,13.40
2022-10-11T22:41:31.679Z,13.30
2022-10-11T22:44:19.401Z,13.40
2022-10-11T22:47:05.904Z,13.30
2022-10-11T22:49:52.397Z,13.10
2022-10-11T22:52:39.787Z,13.00
2022-10-11T22:55:26.937Z,12.90
2022-10-11T22:58:13.559Z,12.80
2022-10-11T23:01:07.692Z,12.70
2022-10-11T23:03:54.239Z,12.60
2022-10-11T23:06:41.010Z,12.70
2022-10-11T23:09:28.865Z,12.80
2022-10-11T23:12:15.689Z,12.80
2022-10-11T23:15:02.266Z,12.80
2022-10-11T23:17:49.843Z,12.90
2022-10-11T23:20:36.225Z,12.70
2022-10-11T23:23:22.478Z,12.60
2022-10-11T23:26:12.176Z,12.60
2022-10-11T23:28:58.557Z,12.60
2022-10-11T23:31:46.553Z,12.50
2022-10-11T23:34:34.385Z,12.30
2022-10-11T23:37:20.659Z,12.20
2022-10-11T23:40:08.603Z,12.30
2022-10-11T23:42:55.238Z,12.20
2022-10-11T23:45:41.592Z,12.00
2022-10-11T23:48:27.995Z,12.10
2022-10-11T23:51:15.848Z,12.10
2022-10-11T23:54:02.475Z,12.00
2022-10-11T23:56:48.773Z,12.00
2022-10-11T23:59:35.155Z,11.90
